Gillette, WY

6:01 PM MDT on July 13, 2014 (GMT -0600)
Gillette-Campbell County (KGCC) Elev 4364 ft | 44.34 °N, 105.54 °W | Change Station

Current weather conditions updated 8 minutes ago

Clear
Clear
85 °F
Feels Like 85 °F
N
15
Wind Variable Wind from North

Tomorrow is forecast to be Much Cooler than today.

Today
High -- | Low -- °F
--% Chance of Precip.
Yesterday
High -- | Low -- °F
Precip. -- in
5:30 AM 8:46 PM
Waning Gibbous, 96% visible
Pressure 30.06 in
Visibility 10.0 miles
Clouds Clear
Dew Point 42 °F
Humidity 22%
Rainfall 0.01 in
Snow Depth Not available.
UV 3 out of 12
Pollen 4.80 out of 12
Air Quality Not available.
Flu Activity Sporadic
METAR KGCC 132353Z AUTO 35013KT 10SM CLR 29/06 A3018 RMK AO2 SLP179 T02940056 10311 20283 58003 $

More Conditions Fewer Conditions

Pressure 30.06 in
Visibility 10.0 miles
Clouds Clear
Dew Point 42 °F
Humidity 22%
Rainfall 0.01 in
Snow Depth Not available.
UV 3 out of 12
Pollen 4.80 out of 12
Air Quality Not available.
Flu Activity Sporadic
METAR KGCC 132353Z AUTO 35013KT 10SM CLR 29/06 A3018 RMK AO2 SLP179 T02940056 10311 20283 58003 $

More Conditions Fewer Conditions

10-Day Weather Forecast

Almanac

Astronomy

Jul. 13, 2014 Rise Set
Actual Time 5:30 AM MDT 8:46 PM MDT
Civil Twilight 4:54 AM MDT 9:21 PM MDT
Nautical Twilight 4:08 AM MDT 10:08 PM MDT
Astronomical Twilight 3:10 AM MDT 11:05 PM MDT
Moon 9:29 PM MDT (7/13) 7:09 AM MDT (7/13)
Length of Visible Light 16h 27m
Length of Day
15h 16m
Tomorrow will be 1m 32s shorter.
Waning Gibbous, 96% of the Moon is Illuminated
Today
Waning Gibbous
Jul 18
Last Quarter
Jul 26
New
Aug 3
First Quarter
Aug 10
Full

Today's Extremes

State Highs State Lows

Community

WunderPhotos

Upload Photos

1,733,454 photos uploaded!

Nearby

Snow Depth

Station Depth Elevation
Townsend Creek 1 in 8700 ft
Big Sandy Opening 0 in 9080 ft
Gunsight Pass 0 in 9820 ft
Crow Creek 7 in 8330 ft
Kendall R.S. 0 in 7740 ft

Earthquake Activity

City Distance Mag. Time & Date
No recent earthquake activity has been reported nearby.
Minimum magnitude displayed is 2.5.

Coastal Water Temperatures

Place Temperature
No Stations Reporting

Nearby Weather Stations

Station Location Temp. Heat Index Dew Point Humidity Wind Precip. Elev Updated Type
RAWS ECHETA WY, Gillette, WY 86 °F 83 °F 40 °F 20% North  at  17 mph 0.00 in / hr 4396 ft 4:51 PM MDT MADIS
(North Gillette), Gillette, WY 83.5 °F 82 °F 48 °F 29% NW  at  6.0 mph 0.00 in / hr 4610 ft 6:01 PM MDT Rapid Fire

Show More Stations Show Fewer Stations